Time,TemperatureF,DewpointF,PressureIn,WindDirection,WindDirectionDegrees,WindSpeedMPH,WindSpeedGustMPH,Humidity,HourlyPrecipIn,Conditions,Clouds,dailyrainin,SoftwareType,DateUTC
2013-02-14 00:00:00,62.4,56.8,29.92,SW,225,0.0,0.0,82,0.00,,,0.00,WeatherCatV1.12B45,2013-02-14 05:00:00,
2013-02-14 00:01:00,62.4,56.8,29.92,SW,225,0.0,0.0,82,0.00,,,0.00,WeatherCatV1.12B45,2013-02-14 05:01:00,
2013-02-14 00:06:00,62.4,55.8,29.93,WSW,247,0.0,0.0,79,0.00,,,0.00,WeatherCatV1.12B45,2013-02-14 05:06:00,
2013-02-14 00:11:00,62.8,55.8,29.92,West,270,0.0,0.7,78,0.00,,,0.00,WeatherCatV1.12B45,2013-02-14 05:11:00,
2013-02-14 00:16:00,62.8,55.8,29.92,West,270,0.0,1.6,78,0.00,,,0.00,WeatherCatV1.12B45,2013-02-14 05:16:00,
2013-02-14 00:21:00,63.0,55.9,29.91,WSW,247,0.0,0.0,78,0.00,,,0.00,WeatherCatV1.12B45,2013-02-14 05:21:00,
2013-02-14 00:26:00,63.0,55.6,29.92,WSW,247,0.0,0.0,77,0.00,,,0.00,WeatherCatV1.12B45,2013-02-14 05:26:00,
2013-02-14 00:31:00,63.1,56.1,29.93,West,270,0.0,0.0,78,0.00,,,0.00,WeatherCatV1.12B45,2013-02-14 05:31:00,
2013-02-14 00:36:00,63.1,56.1,29.92,WNW,292,1.3,1.3,78,0.00,,,0.00,WeatherCatV1.12B45,2013-02-14 05:36:00,
2013-02-14 00:41:00,63.1,56.1,29.92,SSW,202,0.0,0.0,78,0.00,,,0.00,WeatherCatV1.12B45,2013-02-14 05:41:00,
2013-02-14 00:46:00,63.0,55.9,29.93,South,180,0.9,0.9,78,0.00,,,0.00,WeatherCatV1.12B45,2013-02-14 05:46:00,
2013-02-14 00:51:00,62.8,55.8,29.93,WSW,247,0.0,0.0,78,0.00,,,0.00,WeatherCatV1.12B45,2013-02-14 05:51:00,
2013-02-14 00:56:00,62.6,55.9,29.94,WNW,292,2.2,2.2,79,0.00,,,0.00,WeatherCatV1.12B45,2013-02-14 05:56:00,
2013-02-14 01:03:00,62.4,55.8,29.93,NNW,337,0.0,0.0,79,0.00,,,0.00,WeatherCatV1.12B45,2013-02-14 06:03:00,
2013-02-14 01:08:00,61.9,55.3,29.93,NNW,337,0.0,0.0,79,0.00,,,0.00,WeatherCatV1.12B45,2013-02-14 06:08:00,
2013-02-14 01:13:00,61.7,55.5,29.93,WSW,247,1.6,1.6,80,0.00,,,0.00,WeatherCatV1.12B45,2013-02-14 06:13:00,
2013-02-14 01:18:00,61.3,55.2,29.93,WNW,292,0.0,3.1,80,0.00,,,0.00,WeatherCatV1.12B45,2013-02-14 06:18:00,
2013-02-14 01:23:00,61.3,55.2,29.93,WSW,247,0.0,0.0,80,0.00,,,0.00,WeatherCatV1.12B45,2013-02-14 06:23:00,
2013-02-14 01:28:00,61.2,55.0,29.93,SW,225,0.0,0.0,80,0.00,,,0.00,WeatherCatV1.12B45,2013-02-14 06:28:00,
2013-02-14 01:33:00,61.2,55.3,29.93,West,270,0.0,1.3,81,0.00,,,0.00,WeatherCatV1.12B45,2013-02-14 06:33:00,
2013-02-14 01:38:00,61.2,55.3,29.92,WNW,292,0.0,0.0,81,0.00,,,0.00,WeatherCatV1.12B45,2013-02-14 06:38:00,
2013-02-14 01:43:00,61.0,55.2,29.92,North,0,0.0,0.0,81,0.00,,,0.00,WeatherCatV1.12B45,2013-02-14 06:43:00,
2013-02-14 01:48:00,61.0,55.2,29.92,NW,315,0.0,0.0,81,0.00,,,0.00,WeatherCatV1.12B45,2013-02-14 06:48:00,
2013-02-14 01:53:00,61.0,55.2,29.93,NW,315,3.1,3.1,81,0.00,,,0.00,WeatherCatV1.12B45,2013-02-14 06:53:00,
2013-02-14 01:58:00,60.8,55.0,29.93,West,270,0.9,0.9,81,0.00,,,0.00,WeatherCatV1.12B45,2013-02-14 06:58:00,
2013-02-14 02:06:00,60.8,55.0,29.93,West,270,0.0,0.0,81,0.00,,,0.00,WeatherCatV1.12B45,2013-02-14 07:06:00,
2013-02-14 02:11:00,60.6,54.8,29.93,NW,315,5.1,5.1,81,0.00,,,0.00,WeatherCatV1.12B45,2013-02-14 07:11:00,
2013-02-14 02:16:00,60.6,54.8,29.92,WSW,247,0.0,0.0,81,0.00,,,0.00,WeatherCatV1.12B45,2013-02-14 07:16:00,
2013-02-14 02:21:00,60.4,54.6,29.93,WNW,292,3.1,3.1,81,0.00,,,0.00,WeatherCatV1.12B45,2013-02-14 07:21:00,
2013-02-14 02:26:00,60.4,54.6,29.94,NW,315,5.1,5.1,81,0.00,,,0.00,WeatherCatV1.12B45,2013-02-14 07:26:00,
2013-02-14 02:31:00,60.4,54.6,29.94,WNW,292,0.9,2.9,81,0.00,,,0.00,WeatherCatV1.12B45,2013-02-14 07:31:00,
2013-02-14 02:36:00,60.4,54.6,29.93,West,270,0.0,0.0,81,0.00,,,0.00,WeatherCatV1.12B45,2013-02-14 07:36:00,
2013-02-14 02:41:00,60.1,54.6,29.94,NW,315,6.0,6.0,82,0.00,,,0.00,WeatherCatV1.12B45,2013-02-14 07:41:00,
2013-02-14 02:46:00,60.1,54.6,29.95,WNW,292,0.0,1.3,82,0.00,,,0.00,WeatherCatV1.12B45,2013-02-14 07:46:00,
2013-02-14 02:51:00,60.1,54.6,29.95,NNW,337,4.7,4.7,82,0.00,,,0.00,WeatherCatV1.12B45,2013-02-14 07:51:00,
2013-02-14 02:56:00,59.9,54.4,29.95,West,270,2.2,2.2,82,0.00,,,0.00,WeatherCatV1.12B45,2013-02-14 07:56:00,
2013-02-14 03:01:00,59.9,54.4,29.95,NW,315,2.0,2.0,82,0.00,,,0.00,WeatherCatV1.12B45,2013-02-14 08:01:00,
2013-02-14 03:06:00,59.7,53.9,29.95,WNW,292,3.6,3.6,81,0.00,,,0.00,WeatherCatV1.12B45,2013-02-14 08:06:00,
2013-02-14 03:11:00,59.5,53.7,29.94,North,0,0.0,0.0,81,0.00,,,0.00,WeatherCatV1.12B45,2013-02-14 08:11:00,
2013-02-14 03:16:00,59.4,53.6,29.94,North,0,5.8,5.8,81,0.00,,,0.00,WeatherCatV1.12B45,2013-02-14 08:16:00,
2013-02-14 03:21:00,59.4,53.2,29.94,WNW,292,0.7,0.7,80,0.00,,,0.00,WeatherCatV1.12B45,2013-02-14 08:21:00,
2013-02-14 03:26:00,59.2,53.4,29.94,WSW,247,2.2,2.2,81,0.00,,,0.00,WeatherCatV1.12B45,2013-02-14 08:26:00,
2013-02-14 03:31:00,59.2,53.4,29.95,West,270,0.7,0.7,81,0.00,,,0.00,WeatherCatV1.12B45,2013-02-14 08:31:00,
2013-02-14 03:36:00,59.0,53.2,29.94,WNW,292,0.0,0.0,81,0.00,,,0.00,WeatherCatV1.12B45,2013-02-14 08:36:00,
2013-02-14 03:41:00,58.8,52.7,29.94,WNW,292,0.0,1.6,80,0.00,,,0.00,WeatherCatV1.12B45,2013-02-14 08:41:00,
2013-02-14 03:46:00,58.8,52.7,29.94,WNW,292,0.0,0.0,80,0.00,,,0.00,WeatherCatV1.12B45,2013-02-14 08:46:00,
2013-02-14 03:51:00,58.8,53.0,29.93,NNW,337,0.0,0.0,81,0.00,,,0.00,WeatherCatV1.12B45,2013-02-14 08:51:00,
2013-02-14 03:56:00,58.8,53.0,29.94,West,270,0.0,0.0,81,0.00,,,0.00,WeatherCatV1.12B45,2013-02-14 08:56:00,
2013-02-14 04:01:00,58.8,53.0,29.93,NW,315,0.0,0.0,81,0.00,,,0.00,WeatherCatV1.12B45,2013-02-14 09:01:00,
2013-02-14 04:06:00,58.8,53.0,29.94,West,270,0.0,0.0,81,0.00,,,0.00,WeatherCatV1.12B45,2013-02-14 09:06:00,
2013-02-14 04:11:00,58.8,53.0,29.94,North,0,1.6,1.6,81,0.00,,,0.00,WeatherCatV1.12B45,2013-02-14 09:11:00,
2013-02-14 04:16:00,58.8,53.0,29.93,North,0,0.0,0.0,81,0.00,,,0.00,WeatherCatV1.12B45,2013-02-14 09:16:00,
2013-02-14 04:21:00,58.8,53.0,29.94,NW,315,0.0,0.0,81,0.00,,,0.00,WeatherCatV1.12B45,2013-02-14 09:21:00,
2013-02-14 04:26:00,58.8,53.0,29.95,North,0,1.1,1.1,81,0.00,,,0.00,WeatherCatV1.12B45,2013-02-14 09:26:00,
2013-02-14 04:31:00,58.8,53.0,29.95,North,0,0.0,0.0,81,0.00,,,0.00,WeatherCatV1.12B45,2013-02-14 09:31:00,
2013-02-14 04:36:00,58.8,53.0,29.95,NW,315,0.0,0.0,81,0.00,,,0.00,WeatherCatV1.12B45,2013-02-14 09:36:00,
2013-02-14 04:41:00,58.8,53.0,29.95,WSW,247,0.0,0.0,81,0.00,,,0.00,WeatherCatV1.12B45,2013-02-14 09:41:00,
2013-02-14 04:46:00,58.6,52.8,29.95,West,270,0.0,0.0,81,0.00,,,0.00,WeatherCatV1.12B45,2013-02-14 09:46:00,
2013-02-14 04:51:00,58.6,52.8,29.94,NNW,337,0.0,0.0,81,0.00,,,0.00,WeatherCatV1.12B45,2013-02-14 09:51:00,
2013-02-14 04:56:00,58.6,52.8,29.95,WNW,292,1.6,3.6,81,0.00,,,0.00,WeatherCatV1.12B45,2013-02-14 09:56:00,
2013-02-14 05:10:00,58.6,52.8,29.95,North,0,0.9,0.9,81,0.00,,,0.00,WeatherCatV1.12B45,2013-02-14 10:10:00,
2013-02-14 05:15:00,58.3,52.5,29.97,NNW,337,4.2,4.2,81,0.00,,,0.00,WeatherCatV1.12B45,2013-02-14 10:15:00,
2013-02-14 05:20:00,58.1,52.3,29.97,WNW,292,0.0,3.4,81,0.00,,,0.00,WeatherCatV1.12B45,2013-02-14 10:20:00,
2013-02-14 05:25:00,58.1,52.3,29.96,NNW,337,0.0,0.0,81,0.00,,,0.00,WeatherCatV1.12B45,2013-02-14 10:25:00,
2013-02-14 05:30:00,57.9,52.1,29.95,NNE,22,0.0,0.0,81,0.00,,,0.00,WeatherCatV1.12B45,2013-02-14 10:30:00,
2013-02-14 05:35:00,57.9,52.1,29.95,NE,45,2.5,2.5,81,0.00,,,0.00,WeatherCatV1.12B45,2013-02-14 10:35:00,
2013-02-14 05:40:00,57.7,51.6,29.96,NW,315,0.0,0.0,80,0.00,,,0.00,WeatherCatV1.12B45,2013-02-14 10:40:00,
2013-02-14 05:45:00,57.7,51.6,29.96,WNW,292,0.0,0.0,80,0.00,,,0.00,WeatherCatV1.12B45,2013-02-14 10:45:00,
2013-02-14 05:50:00,57.7,51.9,29.97,North,0,3.6,3.6,81,0.00,,,0.00,WeatherCatV1.12B45,2013-02-14 10:50:00,
2013-02-14 05:55:00,57.7,51.6,29.97,North,0,2.2,2.2,80,0.00,,,0.00,WeatherCatV1.12B45,2013-02-14 10:55:00,
2013-02-14 06:00:00,57.7,51.6,29.96,ENE,67,0.0,0.0,80,0.00,,,0.00,WeatherCatV1.12B45,2013-02-14 11:00:00,
2013-02-14 06:19:00,57.0,50.2,29.97,NNE,22,0.0,0.0,78,0.00,,,0.00,WeatherCatV1.12B45,2013-02-14 11:19:00,
2013-02-14 06:24:00,56.8,50.0,29.97,NNW,337,2.2,2.7,78,0.00,,,0.00,WeatherCatV1.12B45,2013-02-14 11:24:00,
2013-02-14 06:29:00,56.8,50.0,29.98,North,0,0.0,0.0,78,0.00,,,0.00,WeatherCatV1.12B45,2013-02-14 11:29:00,
2013-02-14 06:34:00,56.7,49.8,29.97,NW,315,1.6,4.0,78,0.00,,,0.00,WeatherCatV1.12B45,2013-02-14 11:34:00,
2013-02-14 06:39:00,56.5,49.6,29.97,NNE,22,0.0,0.0,78,0.00,,,0.00,WeatherCatV1.12B45,2013-02-14 11:39:00,
2013-02-14 06:44:00,56.3,49.5,29.98,NNW,337,2.2,2.2,78,0.00,,,0.00,WeatherCatV1.12B45,2013-02-14 11:44:00,
2013-02-14 06:49:00,56.3,49.3,29.99,North,0,0.0,2.2,78,0.00,,,0.00,WeatherCatV1.12B45,2013-02-14 11:49:00,
2013-02-14 06:54:00,56.1,49.3,29.98,NNW,337,4.2,4.2,78,0.00,,,0.00,WeatherCatV1.12B45,2013-02-14 11:54:00,
2013-02-14 06:59:00,55.9,49.5,29.99,WNW,292,2.0,2.0,79,0.00,,,0.00,WeatherCatV1.12B45,2013-02-14 11:59:00,
2013-02-14 07:04:00,55.9,49.5,30.00,North,0,0.0,0.0,79,0.02,,,0.02,WeatherCatV1.12B45,2013-02-14 12:04:00,
2013-02-14 07:09:00,55.6,49.1,29.99,NW,315,0.0,2.0,79,0.02,,,0.02,WeatherCatV1.12B45,2013-02-14 12:09:00,
2013-02-14 07:14:00,55.6,49.1,29.98,North,0,0.7,0.7,79,0.02,,,0.02,WeatherCatV1.12B45,2013-02-14 12:14:00,
2013-02-14 07:19:00,55.2,48.8,29.98,NNW,337,0.0,0.0,79,0.02,,,0.02,WeatherCatV1.12B45,2013-02-14 12:19:00,
2013-02-14 07:24:00,55.0,49.0,29.98,North,0,0.0,0.0,80,0.02,,,0.02,WeatherCatV1.12B45,2013-02-14 12:24:00,
2013-02-14 07:29:00,55.0,49.0,29.98,North,0,0.0,0.0,80,0.02,,,0.02,WeatherCatV1.12B45,2013-02-14 12:29:00,
2013-02-14 07:34:00,54.9,49.1,29.99,WNW,292,0.0,0.0,81,0.02,,,0.02,WeatherCatV1.12B45,2013-02-14 12:34:00,
2013-02-14 07:39:00,55.0,49.3,29.99,NNW,337,0.7,0.7,81,0.02,,,0.02,WeatherCatV1.12B45,2013-02-14 12:39:00,
2013-02-14 07:44:00,54.9,49.1,29.99,NNW,337,0.0,0.0,81,0.02,,,0.02,WeatherCatV1.12B45,2013-02-14 12:44:00,
2013-02-14 07:49:00,54.9,49.1,29.99,NNE,22,1.6,2.5,81,0.02,,,0.02,WeatherCatV1.12B45,2013-02-14 12:49:00,
2013-02-14 07:54:00,54.7,48.9,30.00,NW,315,0.0,0.0,81,0.02,,,0.02,WeatherCatV1.12B45,2013-02-14 12:54:00,
2013-02-14 07:59:00,54.7,48.9,30.01,NNW,337,0.0,0.0,81,0.02,,,0.02,WeatherCatV1.12B45,2013-02-14 12:59:00,
2013-02-14 08:04:00,54.7,49.3,30.01,West,270,1.3,1.3,82,0.00,,,0.02,WeatherCatV1.12B45,2013-02-14 13:04:00,
2013-02-14 08:09:00,54.7,49.3,30.01,WNW,292,2.2,2.2,82,0.00,,,0.02,WeatherCatV1.12B45,2013-02-14 13:09:00,
2013-02-14 08:14:00,54.7,49.3,30.01,NW,315,1.6,1.6,82,0.00,,,0.02,WeatherCatV1.12B45,2013-02-14 13:14:00,
2013-02-14 08:19:00,54.7,49.3,30.01,WNW,292,0.0,0.0,82,0.00,,,0.02,WeatherCatV1.12B45,2013-02-14 13:19:00,
2013-02-14 08:24:00,54.7,49.3,30.01,WNW,292,0.0,3.6,82,0.00,,,0.02,WeatherCatV1.12B45,2013-02-14 13:24:00,
2013-02-14 08:29:00,54.7,49.3,30.02,NW,315,2.0,2.0,82,0.00,,,0.02,WeatherCatV1.12B45,2013-02-14 13:29:00,
2013-02-14 08:34:00,54.7,49.3,30.03,West,270,0.0,0.0,82,0.00,,,0.02,WeatherCatV1.12B45,2013-02-14 13:34:00,
2013-02-14 08:39:00,54.7,49.3,30.04,West,270,0.0,0.0,82,0.00,,,0.02,WeatherCatV1.12B45,2013-02-14 13:39:00,
2013-02-14 08:44:00,54.7,49.3,30.04,NW,315,3.8,3.8,82,0.02,,,0.04,WeatherCatV1.12B45,2013-02-14 13:44:00,
2013-02-14 08:49:00,54.3,49.2,30.03,WSW,247,1.6,1.6,83,0.02,,,0.04,WeatherCatV1.12B45,2013-02-14 13:49:00,
2013-02-14 08:54:00,54.5,49.4,30.02,NE,45,0.0,0.0,83,0.02,,,0.04,WeatherCatV1.12B45,2013-02-14 13:54:00,
2013-02-14 08:59:00,54.5,49.4,30.04,West,270,0.0,0.0,83,0.02,,,0.04,WeatherCatV1.12B45,2013-02-14 13:59:00,
2013-02-14 09:04:00,54.5,49.4,30.03,North,0,0.0,0.0,83,0.02,,,0.04,WeatherCatV1.12B45,2013-02-14 14:04:00,
2013-02-14 09:09:00,54.5,49.4,30.03,ENE,67,0.0,0.0,83,0.02,,,0.04,WeatherCatV1.12B45,2013-02-14 14:09:00,
2013-02-14 09:14:00,54.5,49.4,30.05,NW,315,3.8,3.8,83,0.02,,,0.04,WeatherCatV1.12B45,2013-02-14 14:14:00,
2013-02-14 09:19:00,54.5,49.4,30.05,NNE,22,0.0,1.3,83,0.02,,,0.04,WeatherCatV1.12B45,2013-02-14 14:19:00,
2013-02-14 09:24:00,54.5,49.4,30.05,NNE,22,4.0,4.0,83,0.02,,,0.04,WeatherCatV1.12B45,2013-02-14 14:24:00,
2013-02-14 09:29:00,54.7,49.6,30.05,North,0,1.6,1.6,83,0.02,,,0.04,WeatherCatV1.12B45,2013-02-14 14:29:00,
2013-02-14 09:34:00,54.7,49.9,30.05,North,0,1.3,1.3,84,0.02,,,0.04,WeatherCatV1.12B45,2013-02-14 14:34:00,
2013-02-14 09:39:00,55.0,50.2,30.04,WNW,292,0.0,2.9,84,0.02,,,0.04,WeatherCatV1.12B45,2013-02-14 14:39:00,
2013-02-14 09:44:00,55.2,50.4,30.05,NNE,22,0.9,0.9,84,0.02,,,0.06,WeatherCatV1.12B45,2013-02-14 14:44:00,
2013-02-14 09:49:00,55.4,50.6,30.06,NW,315,0.0,0.7,84,0.02,,,0.06,WeatherCatV1.12B45,2013-02-14 14:49:00,
2013-02-14 09:54:00,55.6,50.4,30.08,NNE,22,2.9,2.9,83,0.02,,,0.06,WeatherCatV1.12B45,2013-02-14 14:54:00,
2013-02-14 09:59:00,55.6,50.4,30.07,NW,315,3.4,3.4,83,0.02,,,0.06,WeatherCatV1.12B45,2013-02-14 14:59:00,
2013-02-14 10:04:00,55.6,50.4,30.05,NNW,337,1.1,2.5,83,0.02,,,0.06,WeatherCatV1.12B45,2013-02-14 15:04:00,
2013-02-14 10:09:00,55.6,50.4,30.05,NNE,22,2.0,2.0,83,0.02,,,0.06,WeatherCatV1.12B45,2013-02-14 15:09:00,
2013-02-14 10:14:00,55.6,50.4,30.05,WNW,292,2.2,2.2,83,0.02,,,0.06,WeatherCatV1.12B45,2013-02-14 15:14:00,
2013-02-14 10:19:00,55.8,50.6,30.04,NW,315,0.0,2.7,83,0.02,,,0.06,WeatherCatV1.12B45,2013-02-14 15:19:00,
2013-02-14 10:24:00,55.8,50.6,30.05,NW,315,1.3,1.3,83,0.02,,,0.06,WeatherCatV1.12B45,2013-02-14 15:24:00,
2013-02-14 10:29:00,55.8,50.6,30.06,NW,315,0.0,0.0,83,0.02,,,0.06,WeatherCatV1.12B45,2013-02-14 15:29:00,
2013-02-14 10:34:00,55.8,50.6,30.07,NW,315,3.1,3.1,83,0.02,,,0.06,WeatherCatV1.12B45,2013-02-14 15:34:00,
2013-02-14 10:39:00,55.6,50.4,30.07,West,270,1.1,2.9,83,0.02,,,0.06,WeatherCatV1.12B45,2013-02-14 15:39:00,
2013-02-14 10:44:00,55.6,50.4,30.07,NW,315,0.0,0.0,83,0.00,,,0.06,WeatherCatV1.12B45,2013-02-14 15:44:00,
2013-02-14 10:49:00,55.6,50.4,30.07,West,270,4.0,4.0,83,0.00,,,0.06,WeatherCatV1.12B45,2013-02-14 15:49:00,
2013-02-14 10:54:00,55.8,50.6,30.06,WSW,247,1.3,1.3,83,0.00,,,0.06,WeatherCatV1.12B45,2013-02-14 15:54:00,
2013-02-14 10:59:00,55.8,50.6,30.06,NE,45,1.6,1.6,83,0.00,,,0.06,WeatherCatV1.12B45,2013-02-14 15:59:00,
2013-02-14 11:04:00,55.6,50.1,30.07,NNE,22,0.0,2.2,82,0.00,,,0.06,WeatherCatV1.12B45,2013-02-14 16:04:00,
2013-02-14 11:09:00,55.6,50.1,30.06,NW,315,0.0,0.0,82,0.00,,,0.06,WeatherCatV1.12B45,2013-02-14 16:09:00,
2013-02-14 11:14:00,55.6,50.1,30.05,NE,45,0.0,0.0,82,0.00,,,0.06,WeatherCatV1.12B45,2013-02-14 16:14:00,
2013-02-14 11:19:00,55.4,49.9,30.06,NW,315,0.0,0.0,82,0.00,,,0.06,WeatherCatV1.12B45,2013-02-14 16:19:00,
2013-02-14 11:24:00,55.6,50.1,30.08,WNW,292,0.0,0.0,82,0.00,,,0.06,WeatherCatV1.12B45,2013-02-14 16:24:00,
2013-02-14 11:30:00,55.6,50.1,30.07,NNW,337,1.3,1.3,82,0.00,,,0.06,WeatherCatV1.12B45,2013-02-14 16:30:00,
2013-02-14 11:35:00,55.6,50.1,30.06,NNW,337,0.0,2.2,82,0.00,,,0.06,WeatherCatV1.12B45,2013-02-14 16:35:00,
2013-02-14 11:40:00,55.8,50.3,30.05,NNW,337,0.0,0.0,82,0.00,,,0.06,WeatherCatV1.12B45,2013-02-14 16:40:00,
2013-02-14 11:45:00,55.9,50.5,30.06,NE,45,0.0,0.0,82,0.00,,,0.06,WeatherCatV1.12B45,2013-02-14 16:45:00,
2013-02-14 11:50:00,55.9,50.5,30.07,North,0,2.5,4.0,82,0.00,,,0.06,WeatherCatV1.12B45,2013-02-14 16:50:00,
2013-02-14 11:55:00,55.9,50.5,30.08,NW,315,0.0,0.0,82,0.00,,,0.06,WeatherCatV1.12B45,2013-02-14 16:55:00,
2013-02-14 12:00:00,55.9,50.5,30.06,NNE,22,3.4,3.4,82,0.00,,,0.06,WeatherCatV1.12B45,2013-02-14 17:00:00,
2013-02-14 12:05:00,56.1,50.6,30.05,West,270,1.1,1.1,82,0.00,,,0.06,WeatherCatV1.12B45,2013-02-14 17:05:00,
2013-02-14 12:10:00,56.3,50.8,30.05,North,0,0.0,0.0,82,0.00,,,0.06,WeatherCatV1.12B45,2013-02-14 17:10:00,
2013-02-14 12:15:00,56.5,51.0,30.05,NW,315,2.9,2.9,82,0.00,,,0.06,WeatherCatV1.12B45,2013-02-14 17:15:00,
2013-02-14 12:20:00,56.8,51.4,30.05,NW,315,0.0,4.9,82,0.00,,,0.06,WeatherCatV1.12B45,2013-02-14 17:20:00,
2013-02-14 12:25:00,56.8,51.4,30.03,SE,135,1.3,1.3,82,0.00,,,0.06,WeatherCatV1.12B45,2013-02-14 17:25:00,
2013-02-14 12:30:00,56.8,51.0,30.02,SE,135,0.0,0.0,81,0.00,,,0.06,WeatherCatV1.12B45,2013-02-14 17:30:00,
2013-02-14 12:35:00,57.0,51.2,30.01,SE,135,0.0,1.6,81,0.00,,,0.06,WeatherCatV1.12B45,2013-02-14 17:35:00,
2013-02-14 12:40:00,57.4,51.6,30.01,SE,135,0.0,0.0,81,0.00,,,0.06,WeatherCatV1.12B45,2013-02-14 17:40:00,
2013-02-14 12:45:00,57.6,51.8,30.01,ENE,67,0.0,0.0,81,0.00,,,0.06,WeatherCatV1.12B45,2013-02-14 17:45:00,
2013-02-14 12:50:00,57.9,51.8,30.03,NNW,337,2.5,2.5,80,0.00,,,0.06,WeatherCatV1.12B45,2013-02-14 17:50:00,
2013-02-14 12:55:00,58.3,52.2,30.02,NNE,22,4.2,4.2,80,0.00,,,0.06,WeatherCatV1.12B45,2013-02-14 17:55:00,
2013-02-14 13:00:00,58.6,52.5,30.02,North,0,3.6,3.6,80,0.00,,,0.06,WeatherCatV1.12B45,2013-02-14 18:00:00,
2013-02-14 13:05:00,59.0,52.9,30.01,WNW,292,1.8,1.8,80,0.00,,,0.06,WeatherCatV1.12B45,2013-02-14 18:05:00,
2013-02-14 13:10:00,59.2,52.7,30.01,NE,45,0.0,0.0,79,0.00,,,0.06,WeatherCatV1.12B45,2013-02-14 18:10:00,
2013-02-14 13:15:00,59.4,52.5,30.01,NNE,22,2.5,2.5,78,0.00,,,0.06,WeatherCatV1.12B45,2013-02-14 18:15:00,
2013-02-14 13:20:00,59.2,52.0,30.00,NNW,337,2.2,2.2,77,0.00,,,0.06,WeatherCatV1.12B45,2013-02-14 18:20:00,
2013-02-14 13:25:00,59.2,52.0,29.98,East,90,0.0,0.0,77,0.00,,,0.06,WeatherCatV1.12B45,2013-02-14 18:25:00,
2013-02-14 13:30:00,59.2,52.0,29.97,ENE,67,0.0,0.0,77,0.00,,,0.06,WeatherCatV1.12B45,2013-02-14 18:30:00,
2013-02-14 13:35:00,58.8,51.6,29.98,NNW,337,1.8,1.8,77,0.00,,,0.06,WeatherCatV1.12B45,2013-02-14 18:35:00,
2013-02-14 13:40:00,58.8,51.6,29.99,NE,45,3.4,3.4,77,0.00,,,0.06,WeatherCatV1.12B45,2013-02-14 18:40:00,
2013-02-14 13:45:00,58.6,51.8,30.00,NNE,22,0.7,0.7,78,0.00,,,0.06,WeatherCatV1.12B45,2013-02-14 18:45:00,
2013-02-14 13:50:00,58.6,51.8,29.99,North,0,0.0,2.0,78,0.00,,,0.06,WeatherCatV1.12B45,2013-02-14 18:50:00,
2013-02-14 13:55:00,58.5,51.3,29.98,ESE,112,0.9,0.9,77,0.00,,,0.06,WeatherCatV1.12B45,2013-02-14 18:55:00,
2013-02-14 14:00:00,58.3,51.1,30.01,NE,45,3.8,3.8,77,0.00,,,0.06,WeatherCatV1.12B45,2013-02-14 19:00:00,
2013-02-14 14:05:00,57.7,50.9,30.03,NNW,337,4.5,4.5,78,0.00,,,0.06,WeatherCatV1.12B45,2013-02-14 19:05:00,
2013-02-14 14:10:00,57.4,50.5,30.04,NW,315,1.8,1.8,78,0.00,,,0.06,WeatherCatV1.12B45,2013-02-14 19:10:00,
2013-02-14 14:15:00,57.2,50.4,30.03,NNW,337,0.0,0.0,78,0.00,,,0.06,WeatherCatV1.12B45,2013-02-14 19:15:00,
2013-02-14 14:20:00,57.0,50.2,30.04,West,270,0.0,1.3,78,0.00,,,0.06,WeatherCatV1.12B45,2013-02-14 19:20:00,
2013-02-14 14:25:00,57.0,50.2,30.04,WNW,292,0.0,0.0,78,0.00,,,0.06,WeatherCatV1.12B45,2013-02-14 19:25:00,
2013-02-14 14:30:00,57.0,50.5,30.03,WNW,292,0.0,0.0,79,0.00,,,0.06,WeatherCatV1.12B45,2013-02-14 19:30:00,
2013-02-14 14:35:00,57.0,50.5,30.03,West,270,3.4,3.4,79,0.00,,,0.06,WeatherCatV1.12B45,2013-02-14 19:35:00,
2013-02-14 14:40:00,57.0,50.5,30.03,NNE,22,3.8,3.8,79,0.00,,,0.06,WeatherCatV1.12B45,2013-02-14 19:40:00,
2013-02-14 14:45:00,56.8,50.0,30.02,NNE,22,3.6,3.6,78,0.00,,,0.06,WeatherCatV1.12B45,2013-02-14 19:45:00,
2013-02-14 14:50:00,56.8,50.0,30.01,NNE,22,7.4,7.4,78,0.00,,,0.06,WeatherCatV1.12B45,2013-02-14 19:50:00,
2013-02-14 14:55:00,56.7,49.8,30.01,NNE,22,0.0,0.0,78,0.00,,,0.06,WeatherCatV1.12B45,2013-02-14 19:55:00,
2013-02-14 15:00:00,56.5,50.0,30.00,WNW,292,0.0,2.5,79,0.00,,,0.06,WeatherCatV1.12B45,2013-02-14 20:00:00,
2013-02-14 15:05:00,56.5,50.0,30.01,NNW,337,1.1,2.7,79,0.00,,,0.06,WeatherCatV1.12B45,2013-02-14 20:05:00,
2013-02-14 15:10:00,56.5,50.0,29.98,NNE,22,3.6,3.6,79,0.00,,,0.06,WeatherCatV1.12B45,2013-02-14 20:10:00,
2013-02-14 15:15:00,56.7,50.0,29.98,ENE,67,1.1,2.2,78,0.00,,,0.06,WeatherCatV1.12B45,2013-02-14 20:15:00,
2013-02-14 15:20:00,56.8,50.0,29.98,NNE,22,0.0,2.0,78,0.00,,,0.06,WeatherCatV1.12B45,2013-02-14 20:20:00,
2013-02-14 15:25:00,56.5,49.6,29.99,NW,315,4.0,4.0,78,0.00,,,0.06,WeatherCatV1.12B45,2013-02-14 20:25:00,
2013-02-14 15:30:00,56.5,49.6,29.99,NNE,22,3.1,3.1,78,0.00,,,0.06,WeatherCatV1.12B45,2013-02-14 20:30:00,
2013-02-14 15:35:00,56.5,49.6,30.00,WNW,292,0.0,0.0,78,0.00,,,0.06,WeatherCatV1.12B45,2013-02-14 20:35:00,
2013-02-14 15:40:00,56.5,49.6,29.99,NNE,22,0.0,0.0,78,0.00,,,0.06,WeatherCatV1.12B45,2013-02-14 20:40:00,
2013-02-14 15:45:00,56.3,49.5,30.01,NNW,337,1.8,1.8,78,0.00,,,0.06,WeatherCatV1.12B45,2013-02-14 20:45:00,
2013-02-14 15:50:00,56.3,49.5,30.01,NE,45,3.8,3.8,78,0.00,,,0.06,WeatherCatV1.12B45,2013-02-14 20:50:00,
2013-02-14 15:55:00,56.3,49.5,30.03,West,270,0.0,0.0,78,0.00,,,0.06,WeatherCatV1.12B45,2013-02-14 20:55:00,
2013-02-14 16:00:00,56.1,49.3,30.04,North,0,2.9,2.9,78,0.00,,,0.06,WeatherCatV1.12B45,2013-02-14 21:00:00,
2013-02-14 16:05:00,56.1,49.3,30.02,East,90,0.0,1.8,78,0.00,,,0.06,WeatherCatV1.12B45,2013-02-14 21:05:00,
2013-02-14 16:10:00,56.1,49.3,30.03,North,0,0.7,0.7,78,0.00,,,0.06,WeatherCatV1.12B45,2013-02-14 21:10:00,
2013-02-14 16:15:00,55.9,49.1,30.03,North,0,0.0,0.0,78,0.00,,,0.06,WeatherCatV1.12B45,2013-02-14 21:15:00,
2013-02-14 16:20:00,55.9,49.5,30.02,West,270,0.0,0.0,79,0.00,,,0.06,WeatherCatV1.12B45,2013-02-14 21:20:00,
2013-02-14 16:25:00,55.8,49.3,30.01,NW,315,0.9,0.9,79,0.00,,,0.06,WeatherCatV1.12B45,2013-02-14 21:25:00,
2013-02-14 16:30:00,55.8,49.3,30.02,NW,315,0.9,0.9,79,0.00,,,0.06,WeatherCatV1.12B45,2013-02-14 21:30:00,
2013-02-14 16:35:00,55.6,49.1,30.02,WNW,292,0.0,0.0,79,0.00,,,0.06,WeatherCatV1.12B45,2013-02-14 21:35:00,
2013-02-14 16:40:00,55.6,49.1,30.03,North,0,0.0,0.0,79,0.00,,,0.06,WeatherCatV1.12B45,2013-02-14 21:40:00,
2013-02-14 16:45:00,55.6,49.1,30.03,NW,315,1.8,1.8,79,0.00,,,0.06,WeatherCatV1.12B45,2013-02-14 21:45:00,
2013-02-14 16:50:00,55.4,48.9,30.02,NNE,22,0.0,2.7,79,0.00,,,0.06,WeatherCatV1.12B45,2013-02-14 21:50:00,
2013-02-14 16:55:00,55.2,48.8,30.01,NE,45,0.0,0.0,79,0.00,,,0.06,WeatherCatV1.12B45,2013-02-14 21:55:00,
2013-02-14 17:00:00,55.2,48.8,30.00,NNW,337,0.0,1.3,79,0.00,,,0.06,WeatherCatV1.12B45,2013-02-14 22:00:00,
2013-02-14 17:05:00,55.2,48.8,30.00,WNW,292,0.0,0.0,79,0.00,,,0.06,WeatherCatV1.12B45,2013-02-14 22:05:00,
2013-02-14 17:10:00,55.2,48.8,29.99,North,0,0.0,0.0,79,0.00,,,0.06,WeatherCatV1.12B45,2013-02-14 22:10:00,
2013-02-14 17:15:00,55.0,48.6,30.02,NW,315,0.9,0.9,79,0.00,,,0.06,WeatherCatV1.12B45,2013-02-14 22:15:00,
2013-02-14 17:20:00,55.0,48.6,30.00,NNW,337,4.7,4.7,79,0.00,,,0.06,WeatherCatV1.12B45,2013-02-14 22:20:00,
2013-02-14 17:25:00,54.7,48.3,29.99,East,90,0.0,0.0,79,0.00,,,0.06,WeatherCatV1.12B45,2013-02-14 22:25:00,
2013-02-14 17:30:00,54.5,48.3,30.01,NW,315,1.1,1.1,80,0.00,,,0.06,WeatherCatV1.12B45,2013-02-14 22:30:00,
2013-02-14 17:35:00,54.5,48.5,30.02,NW,315,0.0,1.8,80,0.00,,,0.06,WeatherCatV1.12B45,2013-02-14 22:35:00,
2013-02-14 17:40:00,54.3,48.3,30.02,West,270,0.0,0.0,80,0.00,,,0.06,WeatherCatV1.12B45,2013-02-14 22:40:00,
2013-02-14 17:45:00,54.5,48.5,30.01,West,270,0.0,0.0,80,0.00,,,0.06,WeatherCatV1.12B45,2013-02-14 22:45:00,
2013-02-14 17:50:00,54.3,48.3,30.03,West,270,0.0,0.0,80,0.00,,,0.06,WeatherCatV1.12B45,2013-02-14 22:50:00,
2013-02-14 17:55:00,54.5,48.5,30.03,NNW,337,0.0,0.0,80,0.00,,,0.06,WeatherCatV1.12B45,2013-02-14 22:55:00,
2013-02-14 18:00:00,54.5,48.5,30.03,WNW,292,0.0,1.3,80,0.00,,,0.06,WeatherCatV1.12B45,2013-02-14 23:00:00,
2013-02-14 18:05:00,54.3,48.6,30.04,WNW,292,0.0,0.0,81,0.00,,,0.06,WeatherCatV1.12B45,2013-02-14 23:05:00,
2013-02-14 18:10:00,54.3,48.6,30.03,WNW,292,0.0,0.0,81,0.00,,,0.06,WeatherCatV1.12B45,2013-02-14 23:10:00,
2013-02-14 18:15:00,54.3,48.6,30.05,WNW,292,0.0,0.0,81,0.00,,,0.06,WeatherCatV1.12B45,2013-02-14 23:15:00,
2013-02-14 18:20:00,54.3,48.6,30.04,West,270,0.0,0.0,81,0.00,,,0.06,WeatherCatV1.12B45,2013-02-14 23:20:00,
2013-02-14 18:25:00,54.3,48.6,30.04,WNW,292,0.0,0.0,81,0.00,,,0.06,WeatherCatV1.12B45,2013-02-14 23:25:00,
2013-02-14 18:30:00,54.3,48.6,30.03,WNW,292,0.0,0.0,81,0.00,,,0.06,WeatherCatV1.12B45,2013-02-14 23:30:00,
2013-02-14 18:35:00,54.3,48.6,30.03,North,0,0.0,0.0,81,0.00,,,0.06,WeatherCatV1.12B45,2013-02-14 23:35:00,
2013-02-14 18:40:00,54.3,48.6,30.03,NW,315,0.0,0.0,81,0.00,,,0.06,WeatherCatV1.12B45,2013-02-14 23:40:00,
2013-02-14 18:45:00,54.3,48.6,30.02,SE,135,0.0,0.0,81,0.00,,,0.06,WeatherCatV1.12B45,2013-02-14 23:45:00,
2013-02-14 18:50:00,54.3,48.6,30.03,NW,315,0.0,0.0,81,0.00,,,0.06,WeatherCatV1.12B45,2013-02-14 23:50:00,
2013-02-14 18:55:00,54.1,48.5,30.02,SE,135,0.0,0.0,81,0.00,,,0.06,WeatherCatV1.12B45,2013-02-14 23:55:00,
2013-02-14 19:00:00,54.1,48.5,30.00,East,90,0.0,0.0,81,0.00,,,0.06,WeatherCatV1.12B45,2013-02-15 00:00:00,
2013-02-14 19:05:00,54.1,48.5,30.01,North,0,0.0,0.0,81,0.00,,,0.06,WeatherCatV1.12B45,2013-02-15 00:05:00,
2013-02-14 19:10:00,54.1,48.5,30.01,WNW,292,0.0,0.0,81,0.00,,,0.06,WeatherCatV1.12B45,2013-02-15 00:10:00,
2013-02-14 19:15:00,54.0,48.3,30.03,NW,315,0.0,2.2,81,0.00,,,0.06,WeatherCatV1.12B45,2013-02-15 00:15:00,
2013-02-14 19:20:00,54.0,48.3,30.03,NW,315,0.0,1.1,81,0.00,,,0.06,WeatherCatV1.12B45,2013-02-15 00:20:00,
2013-02-14 19:25:00,54.0,48.3,30.03,NNW,337,2.0,2.0,81,0.00,,,0.06,WeatherCatV1.12B45,2013-02-15 00:25:00,
2013-02-14 19:30:00,54.1,48.5,30.03,North,0,2.2,2.2,81,0.00,,,0.06,WeatherCatV1.12B45,2013-02-15 00:30:00,
2013-02-14 19:35:00,54.0,48.3,30.03,West,270,0.0,0.0,81,0.00,,,0.06,WeatherCatV1.12B45,2013-02-15 00:35:00,
2013-02-14 19:40:00,54.0,48.3,30.03,NNE,22,0.0,0.0,81,0.00,,,0.06,WeatherCatV1.12B45,2013-02-15 00:40:00,
2013-02-14 19:45:00,54.0,48.3,30.03,NW,315,0.0,0.0,81,0.00,,,0.06,WeatherCatV1.12B45,2013-02-15 00:45:00,
2013-02-14 19:53:00,53.8,48.1,29.95,SE,135,2.7,2.7,81,0.00,,,0.06,WeatherCatV1.13B119,2013-02-15 00:53:00,
2013-02-14 19:58:00,53.8,48.1,29.96,NW,315,1.1,1.1,81,0.00,,,0.06,WeatherCatV1.13B119,2013-02-15 00:58:00,
2013-02-14 20:03:00,53.4,48.1,29.98,NW,315,1.1,1.1,82,0.00,,,0.06,WeatherCatV1.13B119,2013-02-15 01:03:00,
2013-02-14 20:08:00,53.4,48.1,30.00,NW,315,2.7,2.7,82,0.00,,,0.06,WeatherCatV1.13B119,2013-02-15 01:08:00,
2013-02-14 20:13:00,53.4,48.1,29.99,NNW,337,0.0,0.0,82,0.00,,,0.06,WeatherCatV1.13B119,2013-02-15 01:13:00,
2013-02-14 20:18:00,53.4,48.1,30.02,NW,315,1.3,1.3,82,0.00,,,0.06,WeatherCatV1.13B119,2013-02-15 01:18:00,
2013-02-14 20:23:00,53.4,48.1,30.04,West,270,0.7,0.7,82,0.00,,,0.06,WeatherCatV1.13B119,2013-02-15 01:23:00,
2013-02-14 20:28:00,53.4,48.4,30.06,West,270,5.8,5.8,83,0.00,,,0.06,WeatherCatV1.13B119,2013-02-15 01:28:00,
2013-02-14 20:33:00,53.2,48.2,30.05,WNW,292,0.0,0.0,83,0.00,,,0.06,WeatherCatV1.13B119,2013-02-15 01:33:00,
2013-02-14 20:38:00,53.2,48.2,30.08,West,270,0.9,0.9,83,0.00,,,0.06,WeatherCatV1.13B119,2013-02-15 01:38:00,
2013-02-14 20:43:00,52.9,47.9,30.06,WSW,247,1.1,1.1,83,0.00,,,0.06,WeatherCatV1.13B119,2013-02-15 01:43:00,
2013-02-14 20:48:00,52.9,47.9,30.04,NNW,337,0.0,0.0,83,0.00,,,0.06,WeatherCatV1.13B119,2013-02-15 01:48:00,
2013-02-14 20:53:00,52.9,47.9,30.06,WNW,292,0.0,0.0,83,0.00,,,0.06,WeatherCatV1.13B119,2013-02-15 01:53:00,
2013-02-14 20:58:00,52.7,47.7,30.05,SW,225,0.0,0.0,83,0.00,,,0.06,WeatherCatV1.13B119,2013-02-15 01:58:00,
2013-02-14 21:03:00,52.7,47.7,30.04,SW,225,0.0,0.0,83,0.00,,,0.06,WeatherCatV1.13B119,2013-02-15 02:03:00,
2013-02-14 21:08:00,52.7,47.7,30.06,West,270,0.0,0.0,83,0.00,,,0.06,WeatherCatV1.13B119,2013-02-15 02:08:00,
2013-02-14 21:13:00,52.7,47.7,30.03,WSW,247,0.0,0.0,83,0.00,,,0.06,WeatherCatV1.13B119,2013-02-15 02:13:00,
2013-02-14 21:18:00,52.7,47.7,30.00,ESE,112,0.0,0.0,83,0.00,,,0.06,WeatherCatV1.13B119,2013-02-15 02:18:00,
2013-02-14 21:23:00,52.7,47.7,30.03,WNW,292,1.3,1.3,83,0.00,,,0.06,WeatherCatV1.13B119,2013-02-15 02:23:00,
2013-02-14 21:28:00,52.7,47.7,30.05,West,270,0.0,0.0,83,0.00,,,0.06,WeatherCatV1.13B119,2013-02-15 02:28:00,
2013-02-14 21:33:00,52.7,47.7,30.05,WSW,247,0.0,0.0,83,0.00,,,0.06,WeatherCatV1.13B119,2013-02-15 02:33:00,
2013-02-14 21:38:00,52.7,47.7,30.03,West,270,0.0,0.0,83,0.00,,,0.06,WeatherCatV1.13B119,2013-02-15 02:38:00,
2013-02-14 21:43:00,52.7,47.7,30.06,West,270,1.1,2.0,83,0.00,,,0.06,WeatherCatV1.13B119,2013-02-15 02:43:00,
2013-02-14 21:48:00,52.7,47.7,30.07,West,270,0.0,0.0,83,0.00,,,0.06,WeatherCatV1.13B119,2013-02-15 02:48:00,
2013-02-14 21:53:00,52.7,47.7,30.05,WNW,292,0.0,0.0,83,0.00,,,0.06,WeatherCatV1.13B119,2013-02-15 02:53:00,
2013-02-14 21:58:00,52.7,47.7,30.04,NNW,337,0.9,2.5,83,0.00,,,0.06,WeatherCatV1.13B119,2013-02-15 02:58:00,
2013-02-14 22:03:00,52.5,47.5,30.04,NNW,337,2.7,2.7,83,0.00,,,0.06,WeatherCatV1.13B119,2013-02-15 03:03:00,
2013-02-14 22:08:00,52.5,47.5,30.04,NNW,337,0.0,0.0,83,0.00,,,0.06,WeatherCatV1.13B119,2013-02-15 03:08:00,
2013-02-14 22:13:00,52.5,47.5,30.04,WNW,292,3.1,3.1,83,0.00,,,0.06,WeatherCatV1.13B119,2013-02-15 03:13:00,
2013-02-14 22:18:00,52.5,47.5,30.04,NW,315,4.2,4.2,83,0.00,,,0.06,WeatherCatV1.13B119,2013-02-15 03:18:00,
2013-02-14 22:23:00,52.3,47.3,30.04,WNW,292,2.0,2.0,83,0.00,,,0.06,WeatherCatV1.13B119,2013-02-15 03:23:00,
2013-02-14 22:28:00,52.3,47.3,30.03,NW,315,0.0,0.0,83,0.00,,,0.06,WeatherCatV1.13B119,2013-02-15 03:28:00,
2013-02-14 22:33:00,52.3,47.3,30.03,WNW,292,0.0,0.0,83,0.00,,,0.06,WeatherCatV1.13B119,2013-02-15 03:33:00,
2013-02-14 22:38:00,52.3,47.3,30.03,NNW,337,0.0,0.0,83,0.00,,,0.06,WeatherCatV1.13B119,2013-02-15 03:38:00,
2013-02-14 22:43:00,52.3,47.3,30.03,NW,315,0.0,0.0,83,0.00,,,0.06,WeatherCatV1.13B119,2013-02-15 03:43:00,
2013-02-14 22:48:00,52.3,47.3,30.03,NNW,337,0.0,0.0,83,0.00,,,0.06,WeatherCatV1.13B119,2013-02-15 03:48:00,
2013-02-14 22:53:00,52.3,47.3,30.03,WNW,292,0.0,0.0,83,0.00,,,0.06,WeatherCatV1.13B119,2013-02-15 03:53:00,
2013-02-14 22:58:00,52.3,47.3,30.03,West,270,0.0,0.0,83,0.00,,,0.06,WeatherCatV1.13B119,2013-02-15 03:58:00,
2013-02-14 23:03:00,52.2,47.1,30.04,West,270,0.0,0.0,83,0.00,,,0.06,WeatherCatV1.13B119,2013-02-15 04:03:00,
2013-02-14 23:08:00,52.2,47.1,30.05,West,270,0.0,0.0,83,0.00,,,0.06,WeatherCatV1.13B119,2013-02-15 04:08:00,
2013-02-14 23:13:00,52.0,47.0,30.05,NW,315,0.0,0.0,83,0.00,,,0.06,WeatherCatV1.13B119,2013-02-15 04:13:00,
2013-02-14 23:18:00,52.0,47.0,30.05,WNW,292,0.0,0.0,83,0.00,,,0.06,WeatherCatV1.13B119,2013-02-15 04:18:00,
2013-02-14 23:23:00,51.8,46.8,30.05,West,270,0.0,0.0,83,0.00,,,0.06,WeatherCatV1.13B119,2013-02-15 04:23:00,
2013-02-14 23:28:00,51.6,46.6,30.06,WNW,292,0.0,2.9,83,0.00,,,0.06,WeatherCatV1.13B119,2013-02-15 04:28:00,
2013-02-14 23:33:00,51.6,46.6,30.07,WNW,292,2.9,2.9,83,0.00,,,0.06,WeatherCatV1.13B119,2013-02-15 04:33:00,
2013-02-14 23:38:00,51.4,46.4,30.07,NNW,337,2.2,2.2,83,0.00,,,0.06,WeatherCatV1.13B119,2013-02-15 04:38:00,
2013-02-14 23:43:00,51.3,46.2,30.06,West,270,0.0,2.5,83,0.00,,,0.06,WeatherCatV1.13B119,2013-02-15 04:43:00,
2013-02-14 23:48:00,51.1,46.1,30.05,NW,315,1.8,1.8,83,0.00,,,0.06,WeatherCatV1.13B119,2013-02-15 04:48:00,
2013-02-14 23:53:00,51.1,46.1,30.06,WNW,292,0.0,1.8,83,0.00,,,0.06,WeatherCatV1.13B119,2013-02-15 04:53:00,
2013-02-14 23:58:00,50.9,46.2,30.05,NW,315,0.0,0.0,84,0.00,,,0.06,WeatherCatV1.13B119,2013-02-15 04:58:00,